sensor_id;sensor_type;location;lat;lon;timestamp;temperature;humidity
8832;DHT22;4452;50.756;4.472;2023-07-20T00:01:14;14.90;99.90
8832;DHT22;4452;50.756;4.472;2023-07-20T00:03:40;14.90;99.90
8832;DHT22;4452;50.756;4.472;2023-07-20T00:06:06;14.90;99.90
8832;DHT22;4452;50.756;4.472;2023-07-20T00:08:32;14.90;99.90
8832;DHT22;4452;50.756;4.472;2023-07-20T00:10:58;14.90;99.90
8832;DHT22;4452;50.756;4.472;2023-07-20T00:13:24;14.90;99.90
8832;DHT22;4452;50.756;4.472;2023-07-20T00:15:50;14.90;99.90
8832;DHT22;4452;50.756;4.472;2023-07-20T00:18:16;14.90;99.90
8832;DHT22;4452;50.756;4.472;2023-07-20T00:20:42;14.90;99.90
8832;DHT22;4452;50.756;4.472;2023-07-20T00:23:07;14.90;99.90
8832;DHT22;4452;50.756;4.472;2023-07-20T00:25:34;14.90;99.90
8832;DHT22;4452;50.756;4.472;2023-07-20T00:27:59;14.90;99.90
8832;DHT22;4452;50.756;4.472;2023-07-20T00:30:25;14.90;99.90
8832;DHT22;4452;50.756;4.472;2023-07-20T00:32:51;15.00;99.90
8832;DHT22;4452;50.756;4.472;2023-07-20T00:35:17;14.90;99.90
8832;DHT22;4452;50.756;4.472;2023-07-20T00:37:42;14.90;99.90
8832;DHT22;4452;50.756;4.472;2023-07-20T00:40:08;14.90;99.90
8832;DHT22;4452;50.756;4.472;2023-07-20T00:42:34;14.90;99.90
8832;DHT22;4452;50.756;4.472;2023-07-20T00:45:00;14.90;99.90
8832;DHT22;4452;50.756;4.472;2023-07-20T00:47:27;14.90;99.90
8832;DHT22;4452;50.756;4.472;2023-07-20T00:49:53;14.90;99.90
8832;DHT22;4452;50.756;4.472;2023-07-20T00:52:21;14.90;99.90
8832;DHT22;4452;50.756;4.472;2023-07-20T00:54:49;14.90;99.90
8832;DHT22;4452;50.756;4.472;2023-07-20T00:57:15;14.90;99.90
8832;DHT22;4452;50.756;4.472;2023-07-20T00:59:43;14.80;99.90
8832;DHT22;4452;50.756;4.472;2023-07-20T01:02:09;14.70;99.90
8832;DHT22;4452;50.756;4.472;2023-07-20T01:04:35;14.80;99.90
8832;DHT22;4452;50.756;4.472;2023-07-20T01:12:35;14.70;99.90
8832;DHT22;4452;50.756;4.472;2023-07-20T01:15:06;14.70;99.90
8832;DHT22;4452;50.756;4.472;2023-07-20T01:17:34;14.70;99.90
8832;DHT22;4452;50.756;4.472;2023-07-20T01:20:00;14.70;99.90
8832;DHT22;4452;50.756;4.472;2023-07-20T01:22:34;14.70;99.90
8832;DHT22;4452;50.756;4.472;2023-07-20T01:25:37;14.70;99.90
8832;DHT22;4452;50.756;4.472;2023-07-20T01:31:21;14.70;99.90
8832;DHT22;4452;50.756;4.472;2023-07-20T01:33:50;14.70;99.90
8832;DHT22;4452;50.756;4.472;2023-07-20T01:36:18;14.80;99.90
8832;DHT22;4452;50.756;4.472;2023-07-20T01:38:45;14.80;99.90
8832;DHT22;4452;50.756;4.472;2023-07-20T01:41:11;14.80;99.90
8832;DHT22;4452;50.756;4.472;2023-07-20T01:43:37;14.80;99.90
8832;DHT22;4452;50.756;4.472;2023-07-20T01:46:03;14.70;99.90
8832;DHT22;4452;50.756;4.472;2023-07-20T01:48:28;14.70;99.90
8832;DHT22;4452;50.756;4.472;2023-07-20T01:50:54;14.80;99.90
8832;DHT22;4452;50.756;4.472;2023-07-20T01:53:20;14.80;99.90
8832;DHT22;4452;50.756;4.472;2023-07-20T01:55:46;14.80;99.90
8832;DHT22;4452;50.756;4.472;2023-07-20T01:58:12;14.90;99.90
8832;DHT22;4452;50.756;4.472;2023-07-20T02:00:38;14.90;99.90
8832;DHT22;4452;50.756;4.472;2023-07-20T02:03:04;14.90;99.90
8832;DHT22;4452;50.756;4.472;2023-07-20T02:05:30;14.90;99.90
8832;DHT22;4452;50.756;4.472;2023-07-20T02:07:55;14.90;99.90
8832;DHT22;4452;50.756;4.472;2023-07-20T02:10:21;14.90;99.90
8832;DHT22;4452;50.756;4.472;2023-07-20T02:12:47;14.90;99.90
8832;DHT22;4452;50.756;4.472;2023-07-20T02:15:13;14.90;99.90
8832;DHT22;4452;50.756;4.472;2023-07-20T02:17:42;14.90;99.90
8832;DHT22;4452;50.756;4.472;2023-07-20T02:20:08;14.90;99.90
8832;DHT22;4452;50.756;4.472;2023-07-20T02:22:38;14.90;99.90
8832;DHT22;4452;50.756;4.472;2023-07-20T02:25:07;14.90;99.90
8832;DHT22;4452;50.756;4.472;2023-07-20T02:27:34;14.90;99.90
8832;DHT22;4452;50.756;4.472;2023-07-20T02:30:00;14.90;99.90
8832;DHT22;4452;50.756;4.472;2023-07-20T02:32:25;14.90;99.90
8832;DHT22;4452;50.756;4.472;2023-07-20T02:34:51;14.90;99.90
8832;DHT22;4452;50.756;4.472;2023-07-20T02:37:17;14.90;99.90
8832;DHT22;4452;50.756;4.472;2023-07-20T02:39:43;14.90;99.90
8832;DHT22;4452;50.756;4.472;2023-07-20T02:42:09;14.90;99.90
8832;DHT22;4452;50.756;4.472;2023-07-20T02:44:35;14.80;99.90
8832;DHT22;4452;50.756;4.472;2023-07-20T02:47:00;14.80;99.90
8832;DHT22;4452;50.756;4.472;2023-07-20T02:49:26;14.80;99.90
8832;DHT22;4452;50.756;4.472;2023-07-20T02:51:52;14.80;99.90
8832;DHT22;4452;50.756;4.472;2023-07-20T02:54:18;14.80;99.90
8832;DHT22;4452;50.756;4.472;2023-07-20T02:56:44;14.90;99.90
8832;DHT22;4452;50.756;4.472;2023-07-20T02:59:09;14.80;99.90
8832;DHT22;4452;50.756;4.472;2023-07-20T03:01:35;14.80;99.90
8832;DHT22;4452;50.756;4.472;2023-07-20T03:04:01;14.80;99.90
8832;DHT22;4452;50.756;4.472;2023-07-20T03:06:27;14.80;99.90
8832;DHT22;4452;50.756;4.472;2023-07-20T03:08:53;14.90;99.90
8832;DHT22;4452;50.756;4.472;2023-07-20T03:11:20;14.90;99.90
8832;DHT22;4452;50.756;4.472;2023-07-20T03:13:46;14.80;99.90
8832;DHT22;4452;50.756;4.472;2023-07-20T03:16:13;14.80;99.90
8832;DHT22;4452;50.756;4.472;2023-07-20T03:18:41;14.80;99.90
8832;DHT22;4452;50.756;4.472;2023-07-20T03:21:08;14.80;99.90
8832;DHT22;4452;50.756;4.472;2023-07-20T03:23:37;14.80;99.90
8832;DHT22;4452;50.756;4.472;2023-07-20T03:26:02;14.90;99.90
8832;DHT22;4452;50.756;4.472;2023-07-20T03:28:28;14.90;99.90
8832;DHT22;4452;50.756;4.472;2023-07-20T03:30:58;14.90;99.90
8832;DHT22;4452;50.756;4.472;2023-07-20T03:33:28;14.90;99.90
8832;DHT22;4452;50.756;4.472;2023-07-20T03:35:55;14.90;99.90
8832;DHT22;4452;50.756;4.472;2023-07-20T03:38:21;14.80;99.90
8832;DHT22;4452;50.756;4.472;2023-07-20T03:40:53;14.80;99.90
8832;DHT22;4452;50.756;4.472;2023-07-20T03:43:20;14.80;99.90
8832;DHT22;4452;50.756;4.472;2023-07-20T03:45:46;14.80;99.90
8832;DHT22;4452;50.756;4.472;2023-07-20T03:48:15;14.80;99.90
8832;DHT22;4452;50.756;4.472;2023-07-20T03:50:40;14.80;99.90
8832;DHT22;4452;50.756;4.472;2023-07-20T03:53:06;14.80;99.90
8832;DHT22;4452;50.756;4.472;2023-07-20T03:55:32;14.80;99.90
8832;DHT22;4452;50.756;4.472;2023-07-20T03:57:58;14.80;99.90
8832;DHT22;4452;50.756;4.472;2023-07-20T04:00:24;14.90;99.90
8832;DHT22;4452;50.756;4.472;2023-07-20T04:02:49;14.90;99.90
8832;DHT22;4452;50.756;4.472;2023-07-20T04:05:15;14.90;99.90
8832;DHT22;4452;50.756;4.472;2023-07-20T04:07:41;14.90;99.90
8832;DHT22;4452;50.756;4.472;2023-07-20T04:10:07;14.90;99.90
8832;DHT22;4452;50.756;4.472;2023-07-20T04:12:32;15.00;99.90
8832;DHT22;4452;50.756;4.472;2023-07-20T04:14:58;15.00;99.90
8832;DHT22;4452;50.756;4.472;2023-07-20T04:17:24;14.90;99.90
8832;DHT22;4452;50.756;4.472;2023-07-20T04:19:50;15.00;99.90
8832;DHT22;4452;50.756;4.472;2023-07-20T04:22:15;15.00;99.90
8832;DHT22;4452;50.756;4.472;2023-07-20T04:24:44;14.90;99.90
8832;DHT22;4452;50.756;4.472;2023-07-20T04:27:10;15.00;99.90
8832;DHT22;4452;50.756;4.472;2023-07-20T04:29:35;15.00;99.90
8832;DHT22;4452;50.756;4.472;2023-07-20T04:32:01;15.00;99.90
8832;DHT22;4452;50.756;4.472;2023-07-20T04:34:27;15.00;99.90
8832;DHT22;4452;50.756;4.472;2023-07-20T04:36:52;15.10;99.90
8832;DHT22;4452;50.756;4.472;2023-07-20T04:39:18;15.00;99.90
8832;DHT22;4452;50.756;4.472;2023-07-20T04:41:44;15.00;99.90
8832;DHT22;4452;50.756;4.472;2023-07-20T04:44:09;15.10;99.90
8832;DHT22;4452;50.756;4.472;2023-07-20T04:46:35;15.00;99.90
8832;DHT22;4452;50.756;4.472;2023-07-20T04:49:27;15.00;99.90
8832;DHT22;4452;50.756;4.472;2023-07-20T04:52:10;15.10;99.90
8832;DHT22;4452;50.756;4.472;2023-07-20T04:54:36;15.10;99.90
8832;DHT22;4452;50.756;4.472;2023-07-20T04:57:02;15.10;99.90
8832;DHT22;4452;50.756;4.472;2023-07-20T04:59:27;15.20;99.90
8832;DHT22;4452;50.756;4.472;2023-07-20T05:01:53;15.30;99.90
8832;DHT22;4452;50.756;4.472;2023-07-20T05:04:18;15.30;99.90
8832;DHT22;4452;50.756;4.472;2023-07-20T05:06:44;15.40;99.90
8832;DHT22;4452;50.756;4.472;2023-07-20T05:09:10;15.40;99.90
8832;DHT22;4452;50.756;4.472;2023-07-20T05:11:35;15.40;99.90
8832;DHT22;4452;50.756;4.472;2023-07-20T05:14:01;15.50;99.90
8832;DHT22;4452;50.756;4.472;2023-07-20T05:16:27;15.60;99.90
8832;DHT22;4452;50.756;4.472;2023-07-20T05:18:52;15.60;99.90
8832;DHT22;4452;50.756;4.472;2023-07-20T05:21:18;15.50;99.90
8832;DHT22;4452;50.756;4.472;2023-07-20T05:23:44;15.60;99.90
8832;DHT22;4452;50.756;4.472;2023-07-20T05:26:10;15.60;99.90
8832;DHT22;4452;50.756;4.472;2023-07-20T05:28:35;15.60;99.90
8832;DHT22;4452;50.756;4.472;2023-07-20T05:31:03;15.60;99.90
8832;DHT22;4452;50.756;4.472;2023-07-20T05:33:28;15.60;99.90
8832;DHT22;4452;50.756;4.472;2023-07-20T05:35:54;15.70;99.90
8832;DHT22;4452;50.756;4.472;2023-07-20T05:38:19;15.60;99.90
8832;DHT22;4452;50.756;4.472;2023-07-20T05:40:45;15.60;99.90
8832;DHT22;4452;50.756;4.472;2023-07-20T05:43:12;15.70;99.90
8832;DHT22;4452;50.756;4.472;2023-07-20T05:45:41;15.70;99.90
8832;DHT22;4452;50.756;4.472;2023-07-20T05:48:08;15.80;99.90
8832;DHT22;4452;50.756;4.472;2023-07-20T05:50:45;15.80;99.90
8832;DHT22;4452;50.756;4.472;2023-07-20T05:53:11;15.90;99.90
8832;DHT22;4452;50.756;4.472;2023-07-20T05:55:37;15.90;99.90
8832;DHT22;4452;50.756;4.472;2023-07-20T05:58:03;15.80;99.90
8832;DHT22;4452;50.756;4.472;2023-07-20T06:00:29;15.90;99.90
8832;DHT22;4452;50.756;4.472;2023-07-20T06:02:55;16.10;99.90
8832;DHT22;4452;50.756;4.472;2023-07-20T06:05:22;16.20;99.90
8832;DHT22;4452;50.756;4.472;2023-07-20T06:07:49;16.30;99.90
8832;DHT22;4452;50.756;4.472;2023-07-20T06:10:14;16.20;99.90
8832;DHT22;4452;50.756;4.472;2023-07-20T06:12:40;16.10;99.90
8832;DHT22;4452;50.756;4.472;2023-07-20T06:15:24;16.00;99.90
8832;DHT22;4452;50.756;4.472;2023-07-20T06:17:50;16.30;99.90
8832;DHT22;4452;50.756;4.472;2023-07-20T06:20:16;16.40;99.90
8832;DHT22;4452;50.756;4.472;2023-07-20T06:22:42;16.40;99.90
8832;DHT22;4452;50.756;4.472;2023-07-20T06:25:07;16.50;99.90
8832;DHT22;4452;50.756;4.472;2023-07-20T06:27:33;16.30;99.90
8832;DHT22;4452;50.756;4.472;2023-07-20T06:29:59;16.30;99.90
8832;DHT22;4452;50.756;4.472;2023-07-20T06:32:24;16.40;99.90
8832;DHT22;4452;50.756;4.472;2023-07-20T06:34:50;16.40;99.90
8832;DHT22;4452;50.756;4.472;2023-07-20T06:37:15;16.30;99.90
8832;DHT22;4452;50.756;4.472;2023-07-20T06:39:41;16.40;99.90
8832;DHT22;4452;50.756;4.472;2023-07-20T06:42:07;16.50;99.90
8832;DHT22;4452;50.756;4.472;2023-07-20T06:44:32;16.70;99.90
8832;DHT22;4452;50.756;4.472;2023-07-20T06:46:58;16.60;99.90
8832;DHT22;4452;50.756;4.472;2023-07-20T06:49:27;16.60;99.90
8832;DHT22;4452;50.756;4.472;2023-07-20T06:51:53;16.60;99.90
8832;DHT22;4452;50.756;4.472;2023-07-20T06:54:19;16.70;99.90
8832;DHT22;4452;50.756;4.472;2023-07-20T06:56:44;16.90;99.90
8832;DHT22;4452;50.756;4.472;2023-07-20T06:59:10;16.80;99.90
8832;DHT22;4452;50.756;4.472;2023-07-20T07:01:36;16.70;99.90
8832;DHT22;4452;50.756;4.472;2023-07-20T07:04:02;16.80;99.90
8832;DHT22;4452;50.756;4.472;2023-07-20T07:06:28;16.70;99.90
8832;DHT22;4452;50.756;4.472;2023-07-20T07:08:54;16.70;99.90
8832;DHT22;4452;50.756;4.472;2023-07-20T07:11:21;17.00;99.90
8832;DHT22;4452;50.756;4.472;2023-07-20T07:13:47;17.10;99.90
8832;DHT22;4452;50.756;4.472;2023-07-20T07:16:15;16.90;99.90
8832;DHT22;4452;50.756;4.472;2023-07-20T07:18:45;17.00;99.90
8832;DHT22;4452;50.756;4.472;2023-07-20T07:21:10;17.10;99.90
8832;DHT22;4452;50.756;4.472;2023-07-20T07:23:37;17.30;99.90
8832;DHT22;4452;50.756;4.472;2023-07-20T07:26:03;17.20;99.90
8832;DHT22;4452;50.756;4.472;2023-07-20T07:28:28;17.20;99.90
8832;DHT22;4452;50.756;4.472;2023-07-20T07:30:55;17.20;99.90
8832;DHT22;4452;50.756;4.472;2023-07-20T07:33:22;17.50;99.90
8832;DHT22;4452;50.756;4.472;2023-07-20T07:35:49;18.40;99.90
8832;DHT22;4452;50.756;4.472;2023-07-20T07:38:15;18.50;99.90
8832;DHT22;4452;50.756;4.472;2023-07-20T07:40:41;18.60;99.90
8832;DHT22;4452;50.756;4.472;2023-07-20T07:43:07;18.60;99.90
8832;DHT22;4452;50.756;4.472;2023-07-20T07:45:35;18.80;99.90
8832;DHT22;4452;50.756;4.472;2023-07-20T07:48:02;19.40;99.90
8832;DHT22;4452;50.756;4.472;2023-07-20T07:50:28;19.80;99.90
8832;DHT22;4452;50.756;4.472;2023-07-20T07:52:54;20.20;99.90
8832;DHT22;4452;50.756;4.472;2023-07-20T07:55:20;20.40;99.90
8832;DHT22;4452;50.756;4.472;2023-07-20T07:57:46;20.30;99.90
8832;DHT22;4452;50.756;4.472;2023-07-20T08:00:13;19.60;99.90
8832;DHT22;4452;50.756;4.472;2023-07-20T08:02:43;18.90;99.90
8832;DHT22;4452;50.756;4.472;2023-07-20T08:05:10;18.80;99.90
8832;DHT22;4452;50.756;4.472;2023-07-20T08:07:36;18.50;99.90
8832;DHT22;4452;50.756;4.472;2023-07-20T08:10:02;18.50;99.90
8832;DHT22;4452;50.756;4.472;2023-07-20T08:12:28;18.70;99.90
8832;DHT22;4452;50.756;4.472;2023-07-20T08:14:54;18.50;99.90
8832;DHT22;4452;50.756;4.472;2023-07-20T08:17:19;18.70;99.90
8832;DHT22;4452;50.756;4.472;2023-07-20T08:19:46;19.30;99.90
8832;DHT22;4452;50.756;4.472;2023-07-20T08:22:12;19.60;99.90
8832;DHT22;4452;50.756;4.472;2023-07-20T08:24:41;19.40;99.90
8832;DHT22;4452;50.756;4.472;2023-07-20T08:27:07;19.10;99.90
8832;DHT22;4452;50.756;4.472;2023-07-20T08:29:34;19.20;99.90
8832;DHT22;4452;50.756;4.472;2023-07-20T08:32:00;19.40;99.90
8832;DHT22;4452;50.756;4.472;2023-07-20T08:34:25;19.10;99.90
8832;DHT22;4452;50.756;4.472;2023-07-20T08:36:51;19.00;99.90
8832;DHT22;4452;50.756;4.472;2023-07-20T08:39:16;18.90;99.90
8832;DHT22;4452;50.756;4.472;2023-07-20T08:41:46;18.90;99.90
8832;DHT22;4452;50.756;4.472;2023-07-20T08:44:12;19.10;99.90
8832;DHT22;4452;50.756;4.472;2023-07-20T08:46:38;18.90;99.90
8832;DHT22;4452;50.756;4.472;2023-07-20T08:49:06;19.80;99.90
8832;DHT22;4452;50.756;4.472;2023-07-20T08:51:32;20.30;99.90
8832;DHT22;4452;50.756;4.472;2023-07-20T08:53:59;20.30;99.90
8832;DHT22;4452;50.756;4.472;2023-07-20T08:56:26;20.10;99.90
8832;DHT22;4452;50.756;4.472;2023-07-20T08:58:53;19.50;99.90
8832;DHT22;4452;50.756;4.472;2023-07-20T09:01:22;19.60;99.90
8832;DHT22;4452;50.756;4.472;2023-07-20T09:03:49;19.40;99.90
8832;DHT22;4452;50.756;4.472;2023-07-20T09:06:15;19.80;99.90
8832;DHT22;4452;50.756;4.472;2023-07-20T09:08:42;20.20;99.90
8832;DHT22;4452;50.756;4.472;2023-07-20T09:11:11;20.10;99.90
8832;DHT22;4452;50.756;4.472;2023-07-20T09:13:37;20.80;99.90
8832;DHT22;4452;50.756;4.472;2023-07-20T09:16:03;20.80;99.90
8832;DHT22;4452;50.756;4.472;2023-07-20T09:18:32;20.20;99.90
8832;DHT22;4452;50.756;4.472;2023-07-20T09:21:05;20.30;99.90
8832;DHT22;4452;50.756;4.472;2023-07-20T09:25:58;20.70;99.90
8832;DHT22;4452;50.756;4.472;2023-07-20T09:28:24;21.00;99.90
8832;DHT22;4452;50.756;4.472;2023-07-20T09:30:50;21.40;99.90
8832;DHT22;4452;50.756;4.472;2023-07-20T09:33:21;21.30;99.90
8832;DHT22;4452;50.756;4.472;2023-07-20T09:35:47;21.30;99.90
8832;DHT22;4452;50.756;4.472;2023-07-20T09:38:14;21.90;99.90
8832;DHT22;4452;50.756;4.472;2023-07-20T09:40:41;21.50;99.90
8832;DHT22;4452;50.756;4.472;2023-07-20T09:43:11;21.90;99.90
8832;DHT22;4452;50.756;4.472;2023-07-20T09:45:43;21.30;99.90
8832;DHT22;4452;50.756;4.472;2023-07-20T09:48:10;21.50;99.90
8832;DHT22;4452;50.756;4.472;2023-07-20T09:50:40;22.20;99.90
8832;DHT22;4452;50.756;4.472;2023-07-20T09:53:09;21.90;99.90
8832;DHT22;4452;50.756;4.472;2023-07-20T09:55:36;21.70;99.90
8832;DHT22;4452;50.756;4.472;2023-07-20T09:58:03;22.20;99.90
8832;DHT22;4452;50.756;4.472;2023-07-20T10:00:29;22.20;99.90
8832;DHT22;4452;50.756;4.472;2023-07-20T10:02:56;21.40;99.90
8832;DHT22;4452;50.756;4.472;2023-07-20T10:05:24;21.10;99.90
8832;DHT22;4452;50.756;4.472;2023-07-20T10:07:53;21.40;99.90
8832;DHT22;4452;50.756;4.472;2023-07-20T10:10:19;22.00;99.90
8832;DHT22;4452;50.756;4.472;2023-07-20T10:12:48;22.00;99.90
8832;DHT22;4452;50.756;4.472;2023-07-20T10:15:23;22.00;99.90
8832;DHT22;4452;50.756;4.472;2023-07-20T10:18:06;21.80;99.90
8832;DHT22;4452;50.756;4.472;2023-07-20T10:20:36;22.40;99.90
8832;DHT22;4452;50.756;4.472;2023-07-20T10:23:03;21.90;99.90
8832;DHT22;4452;50.756;4.472;2023-07-20T10:25:30;21.80;99.90
8832;DHT22;4452;50.756;4.472;2023-07-20T10:27:57;22.30;99.90
8832;DHT22;4452;50.756;4.472;2023-07-20T10:30:24;22.80;99.90
8832;DHT22;4452;50.756;4.472;2023-07-20T10:32:51;22.80;99.90
8832;DHT22;4452;50.756;4.472;2023-07-20T10:35:18;22.90;99.90
8832;DHT22;4452;50.756;4.472;2023-07-20T10:37:55;22.60;99.90
8832;DHT22;4452;50.756;4.472;2023-07-20T10:42:51;22.00;99.90
8832;DHT22;4452;50.756;4.472;2023-07-20T10:45:21;22.30;99.90
8832;DHT22;4452;50.756;4.472;2023-07-20T10:47:57;22.40;99.90
8832;DHT22;4452;50.756;4.472;2023-07-20T10:50:23;22.30;99.90
8832;DHT22;4452;50.756;4.472;2023-07-20T10:53:04;21.90;99.90
8832;DHT22;4452;50.756;4.472;2023-07-20T10:55:35;22.20;99.90
8832;DHT22;4452;50.756;4.472;2023-07-20T10:58:13;22.60;99.90
8832;DHT22;4452;50.756;4.472;2023-07-20T11:00:57;22.90;99.90
8832;DHT22;4452;50.756;4.472;2023-07-20T11:05:58;23.00;99.90
8832;DHT22;4452;50.756;4.472;2023-07-20T11:08:43;23.00;99.90
8832;DHT22;4452;50.756;4.472;2023-07-20T11:11:26;22.90;99.90
8832;DHT22;4452;50.756;4.472;2023-07-20T11:14:00;22.80;99.90
8832;DHT22;4452;50.756;4.472;2023-07-20T11:19:02;22.40;99.90
8832;DHT22;4452;50.756;4.472;2023-07-20T11:21:29;22.50;99.90
8832;DHT22;4452;50.756;4.472;2023-07-20T11:23:55;23.00;99.90
8832;DHT22;4452;50.756;4.472;2023-07-20T11:26:21;23.20;99.90
8832;DHT22;4452;50.756;4.472;2023-07-20T11:28:50;23.80;99.90
8832;DHT22;4452;50.756;4.472;2023-07-20T11:31:18;24.00;99.90
8832;DHT22;4452;50.756;4.472;2023-07-20T11:33:43;23.00;99.90
8832;DHT22;4452;50.756;4.472;2023-07-20T11:36:09;23.30;99.90
8832;DHT22;4452;50.756;4.472;2023-07-20T11:38:35;23.00;99.90
8832;DHT22;4452;50.756;4.472;2023-07-20T11:41:03;23.00;99.90
8832;DHT22;4452;50.756;4.472;2023-07-20T11:43:29;23.00;99.90
8832;DHT22;4452;50.756;4.472;2023-07-20T11:45:56;22.70;99.90
8832;DHT22;4452;50.756;4.472;2023-07-20T11:48:21;22.60;99.90
8832;DHT22;4452;50.756;4.472;2023-07-20T11:50:48;22.40;99.90
8832;DHT22;4452;50.756;4.472;2023-07-20T11:53:14;22.40;99.90
8832;DHT22;4452;50.756;4.472;2023-07-20T11:55:41;22.80;99.90
8832;DHT22;4452;50.756;4.472;2023-07-20T11:58:08;22.80;99.90
8832;DHT22;4452;50.756;4.472;2023-07-20T12:00:34;23.70;99.90
8832;DHT22;4452;50.756;4.472;2023-07-20T12:03:01;23.70;99.90
8832;DHT22;4452;50.756;4.472;2023-07-20T12:05:27;23.40;99.90
8832;DHT22;4452;50.756;4.472;2023-07-20T12:07:52;23.10;99.90
8832;DHT22;4452;50.756;4.472;2023-07-20T12:10:26;23.60;99.90
8832;DHT22;4452;50.756;4.472;2023-07-20T12:12:53;24.50;99.90
8832;DHT22;4452;50.756;4.472;2023-07-20T12:15:24;24.70;99.90
8832;DHT22;4452;50.756;4.472;2023-07-20T12:17:52;24.20;99.90
8832;DHT22;4452;50.756;4.472;2023-07-20T12:20:35;24.00;99.90
8832;DHT22;4452;50.756;4.472;2023-07-20T12:23:03;23.30;99.90
8832;DHT22;4452;50.756;4.472;2023-07-20T12:25:48;23.60;99.90
8832;DHT22;4452;50.756;4.472;2023-07-20T12:28:17;24.10;99.90
8832;DHT22;4452;50.756;4.472;2023-07-20T12:30:44;23.70;99.90
8832;DHT22;4452;50.756;4.472;2023-07-20T12:33:10;23.10;99.90
8832;DHT22;4452;50.756;4.472;2023-07-20T12:35:37;22.80;99.90
8832;DHT22;4452;50.756;4.472;2023-07-20T12:38:03;23.40;99.90
8832;DHT22;4452;50.756;4.472;2023-07-20T12:40:28;23.10;99.90
8832;DHT22;4452;50.756;4.472;2023-07-20T12:42:54;23.20;99.90
8832;DHT22;4452;50.756;4.472;2023-07-20T12:45:20;23.10;99.90
8832;DHT22;4452;50.756;4.472;2023-07-20T12:47:46;22.80;99.90
8832;DHT22;4452;50.756;4.472;2023-07-20T12:50:11;22.70;99.90
8832;DHT22;4452;50.756;4.472;2023-07-20T12:52:38;22.90;99.90
8832;DHT22;4452;50.756;4.472;2023-07-20T12:55:06;23.90;99.90
8832;DHT22;4452;50.756;4.472;2023-07-20T12:57:37;24.20;99.90
8832;DHT22;4452;50.756;4.472;2023-07-20T13:00:08;25.10;99.90
8832;DHT22;4452;50.756;4.472;2023-07-20T13:02:34;25.10;99.90
8832;DHT22;4452;50.756;4.472;2023-07-20T13:05:01;24.50;99.90
8832;DHT22;4452;50.756;4.472;2023-07-20T13:07:31;24.30;99.90
8832;DHT22;4452;50.756;4.472;2023-07-20T13:09:58;24.00;99.90
8832;DHT22;4452;50.756;4.472;2023-07-20T13:12:26;23.10;99.90
8832;DHT22;4452;50.756;4.472;2023-07-20T13:14:51;23.20;99.90
8832;DHT22;4452;50.756;4.472;2023-07-20T13:17:17;22.80;99.90
8832;DHT22;4452;50.756;4.472;2023-07-20T13:19:43;23.00;99.90
8832;DHT22;4452;50.756;4.472;2023-07-20T13:22:08;23.30;99.90
8832;DHT22;4452;50.756;4.472;2023-07-20T13:24:34;22.80;99.90
8832;DHT22;4452;50.756;4.472;2023-07-20T13:26:59;22.70;99.90
8832;DHT22;4452;50.756;4.472;2023-07-20T13:29:25;23.20;99.90
8832;DHT22;4452;50.756;4.472;2023-07-20T13:31:51;23.30;99.90
8832;DHT22;4452;50.756;4.472;2023-07-20T13:34:17;23.00;99.90
8832;DHT22;4452;50.756;4.472;2023-07-20T13:36:42;23.60;99.90
8832;DHT22;4452;50.756;4.472;2023-07-20T13:39:08;23.80;99.90
8832;DHT22;4452;50.756;4.472;2023-07-20T13:41:34;24.20;99.90
8832;DHT22;4452;50.756;4.472;2023-07-20T13:44:00;24.20;99.90
8832;DHT22;4452;50.756;4.472;2023-07-20T13:46:25;24.20;99.90
8832;DHT22;4452;50.756;4.472;2023-07-20T13:48:51;24.30;99.90
8832;DHT22;4452;50.756;4.472;2023-07-20T13:51:17;23.70;99.90
8832;DHT22;4452;50.756;4.472;2023-07-20T13:53:46;23.70;99.90
8832;DHT22;4452;50.756;4.472;2023-07-20T13:56:11;23.30;99.90
8832;DHT22;4452;50.756;4.472;2023-07-20T13:58:37;23.10;99.90
8832;DHT22;4452;50.756;4.472;2023-07-20T14:01:03;23.00;99.90
8832;DHT22;4452;50.756;4.472;2023-07-20T14:03:28;22.80;99.90
8832;DHT22;4452;50.756;4.472;2023-07-20T14:05:54;22.70;99.90
8832;DHT22;4452;50.756;4.472;2023-07-20T14:08:21;22.80;99.90
8832;DHT22;4452;50.756;4.472;2023-07-20T14:10:47;22.70;99.90
8832;DHT22;4452;50.756;4.472;2023-07-20T14:13:16;22.20;99.90
8832;DHT22;4452;50.756;4.472;2023-07-20T14:15:44;22.00;99.90
8832;DHT22;4452;50.756;4.472;2023-07-20T14:18:12;22.00;99.90
8832;DHT22;4452;50.756;4.472;2023-07-20T14:20:41;21.90;99.90
8832;DHT22;4452;50.756;4.472;2023-07-20T14:23:11;22.20;99.90
8832;DHT22;4452;50.756;4.472;2023-07-20T14:25:38;22.50;99.90
8832;DHT22;4452;50.756;4.472;2023-07-20T14:28:03;22.70;99.90
8832;DHT22;4452;50.756;4.472;2023-07-20T14:30:29;23.30;99.90
8832;DHT22;4452;50.756;4.472;2023-07-20T14:32:55;23.70;99.90
8832;DHT22;4452;50.756;4.472;2023-07-20T14:35:20;23.80;99.90
8832;DHT22;4452;50.756;4.472;2023-07-20T14:37:47;23.70;99.90
8832;DHT22;4452;50.756;4.472;2023-07-20T14:40:13;24.10;99.90
8832;DHT22;4452;50.756;4.472;2023-07-20T14:42:39;24.60;99.90
8832;DHT22;4452;50.756;4.472;2023-07-20T14:45:06;25.30;99.90
8832;DHT22;4452;50.756;4.472;2023-07-20T14:47:33;25.60;99.90
8832;DHT22;4452;50.756;4.472;2023-07-20T14:50:04;24.60;99.90
8832;DHT22;4452;50.756;4.472;2023-07-20T14:52:30;24.60;99.90
8832;DHT22;4452;50.756;4.472;2023-07-20T14:54:56;24.60;99.90
8832;DHT22;4452;50.756;4.472;2023-07-20T14:57:23;25.10;99.90
8832;DHT22;4452;50.756;4.472;2023-07-20T14:59:51;25.20;99.90
8832;DHT22;4452;50.756;4.472;2023-07-20T15:02:19;24.40;99.90
8832;DHT22;4452;50.756;4.472;2023-07-20T15:04:51;24.90;99.90
8832;DHT22;4452;50.756;4.472;2023-07-20T15:07:20;25.10;99.90
8832;DHT22;4452;50.756;4.472;2023-07-20T15:09:52;24.20;99.90
8832;DHT22;4452;50.756;4.472;2023-07-20T15:12:19;23.20;99.90
8832;DHT22;4452;50.756;4.472;2023-07-20T15:15:07;23.00;99.90
8832;DHT22;4452;50.756;4.472;2023-07-20T15:17:35;23.10;99.90
8832;DHT22;4452;50.756;4.472;2023-07-20T15:20:05;23.30;99.90
8832;DHT22;4452;50.756;4.472;2023-07-20T15:22:37;23.10;99.90
8832;DHT22;4452;50.756;4.472;2023-07-20T15:25:09;23.00;99.90
8832;DHT22;4452;50.756;4.472;2023-07-20T15:27:40;22.70;99.90
8832;DHT22;4452;50.756;4.472;2023-07-20T15:30:10;22.50;99.90
8832;DHT22;4452;50.756;4.472;2023-07-20T15:32:37;22.40;99.90
8832;DHT22;4452;50.756;4.472;2023-07-20T15:35:07;22.30;99.90
8832;DHT22;4452;50.756;4.472;2023-07-20T15:37:35;22.00;99.90
8832;DHT22;4452;50.756;4.472;2023-07-20T15:40:04;21.90;99.90
8832;DHT22;4452;50.756;4.472;2023-07-20T15:42:32;21.60;99.90
8832;DHT22;4452;50.756;4.472;2023-07-20T15:44:59;21.40;99.90
8832;DHT22;4452;50.756;4.472;2023-07-20T15:47:25;21.30;99.90
8832;DHT22;4452;50.756;4.472;2023-07-20T15:49:51;21.30;99.90
8832;DHT22;4452;50.756;4.472;2023-07-20T15:52:17;21.10;99.90
8832;DHT22;4452;50.756;4.472;2023-07-20T15:54:43;21.20;99.90
8832;DHT22;4452;50.756;4.472;2023-07-20T15:57:09;20.90;99.90
8832;DHT22;4452;50.756;4.472;2023-07-20T15:59:35;20.70;99.90
8832;DHT22;4452;50.756;4.472;2023-07-20T16:02:01;20.60;99.90
8832;DHT22;4452;50.756;4.472;2023-07-20T16:04:27;20.50;99.90
8832;DHT22;4452;50.756;4.472;2023-07-20T16:06:52;19.50;99.90
8832;DHT22;4452;50.756;4.472;2023-07-20T16:09:19;18.70;99.90
8832;DHT22;4452;50.756;4.472;2023-07-20T16:11:45;17.80;99.90
8832;DHT22;4452;50.756;4.472;2023-07-20T16:14:11;17.20;99.90
8832;DHT22;4452;50.756;4.472;2023-07-20T16:16:37;16.60;99.90
8832;DHT22;4452;50.756;4.472;2023-07-20T16:19:03;16.20;99.90
8832;DHT22;4452;50.756;4.472;2023-07-20T16:21:28;16.00;99.90